Time;durP1;ratioP1;P1;durP2;ratioP2;P2;SDS_P1;SDS_P2;PMS_P1;PMS_P2;Temp;Humidity;BMP_temperature;BMP_pressure;BME280_temperature;BME280_humidity;BME280_pressure;Samples;Min_cycle;Max_cycle;Signal;HPM_P1;HPM_P2
2021/01/19 00:01:15;;;;;;;11.18;3.80;;;;;;;3.45;77.43;100145.53;4974443;28;20513;-34
2021/01/19 00:03:40;;;;;;;10.75;4.00;;;;;;;3.44;77.78;100154.00;4974507;28;20435;-33
2021/01/19 00:06:06;;;;;;;7.60;3.30;;;;;;;3.44;77.53;100147.19;4974399;28;20035;-33
2021/01/19 00:08:32;;;;;;;8.52;3.20;;;;;;;3.44;77.79;100142.06;4974531;28;20038;-34
2021/01/19 00:10:59;;;;;;;11.75;3.83;;;;;;;3.43;77.50;100135.19;4957169;28;20074;-34
2021/01/19 00:13:24;;;;;;;12.07;3.25;;;;;;;3.43;77.38;100142.00;4974467;28;20035;-34
2021/01/19 00:15:52;;;;;;;17.48;4.15;;;;;;;3.41;77.60;100139.38;4977208;28;20151;-34
2021/01/19 00:18:18;;;;;;;9.15;3.55;;;;;;;3.40;77.83;100136.72;4961119;28;20058;-33
2021/01/19 00:20:44;;;;;;;9.35;3.80;;;;;;;3.42;77.30;100127.44;4978206;28;20034;-33
2021/01/19 00:23:12;;;;;;;14.40;3.78;;;;;;;3.41;77.88;100120.56;4978026;28;20519;-33
2021/01/19 00:25:41;;;;;;;12.80;4.00;;;;;;;3.39;77.96;100105.13;4960592;28;20490;-34
2021/01/19 00:28:08;;;;;;;10.57;4.43;;;;;;;3.39;77.28;100100.00;4977135;28;20039;-33
2021/01/19 00:30:38;;;;;;;11.35;3.83;;;;;;;3.38;77.22;100093.13;4977984;28;20114;-33
2021/01/19 00:33:04;;;;;;;14.50;3.72;;;;;;;3.35;77.43;100091.25;4978491;28;20124;-34
2021/01/19 00:35:29;;;;;;;6.70;3.47;;;;;;;3.35;76.85;100088.69;4978001;28;20483;-33
2021/01/19 00:37:56;;;;;;;13.70;3.75;;;;;;;3.35;77.52;100087.84;4976615;28;20629;-34
2021/01/19 00:40:21;;;;;;;17.35;3.67;;;;;;;3.37;77.60;100082.78;4977607;28;20042;-33
2021/01/19 00:42:46;;;;;;;14.18;4.20;;;;;;;3.34;77.38;100081.84;4978254;28;20043;-34
2021/01/19 00:45:12;;;;;;;13.75;4.60;;;;;;;3.32;77.38;100085.13;4977920;28;20050;-33
2021/01/19 00:47:37;;;;;;;14.02;4.25;;;;;;;3.33;77.45;100074.97;4977670;28;20045;-33
2021/01/19 00:50:06;;;;;;;11.40;4.25;;;;;;;3.33;77.04;100074.06;4976415;28;20039;-33
2021/01/19 00:52:32;;;;;;;21.25;4.43;;;;;;;3.33;76.96;100071.53;4977727;28;20394;-33
2021/01/19 00:54:57;;;;;;;9.48;4.18;;;;;;;3.33;77.10;100062.16;4977570;28;20035;-33
2021/01/19 00:57:23;;;;;;;12.07;4.55;;;;;;;3.31;77.01;100066.34;4977241;28;20037;-34
2021/01/19 00:59:48;;;;;;;15.65;3.22;;;;;;;3.29;77.35;100060.25;4977719;28;20039;-33
2021/01/19 01:02:16;;;;;;;13.45;4.00;;;;;;;3.29;77.13;100064.50;4977417;28;20062;-33
2021/01/19 01:04:42;;;;;;;14.57;3.88;;;;;;;3.27;77.37;100064.44;4977115;28;20039;-33
2021/01/19 01:07:08;;;;;;;15.82;4.90;;;;;;;3.28;77.27;100055.06;4976861;28;20034;-33
2021/01/19 01:09:37;;;;;;;12.50;4.57;;;;;;;3.28;77.05;100039.69;4977226;28;20031;-33
2021/01/19 01:12:06;;;;;;;15.77;4.30;;;;;;;3.25;77.23;100032.75;4977003;28;20508;-34
2021/01/19 01:14:35;;;;;;;10.88;4.35;;;;;;;3.26;77.37;100029.38;4976315;28;20035;-33
2021/01/19 01:17:00;;;;;;;14.88;4.82;;;;;;;3.23;77.02;100031.78;4977180;28;20068;-33
2021/01/19 01:19:26;;;;;;;13.07;4.53;;;;;;;3.26;77.01;100025.94;4977164;28;20553;-33
2021/01/19 01:21:52;;;;;;;13.20;4.22;;;;;;;3.25;76.90;100032.75;4975886;28;20045;-33
2021/01/19 01:24:18;;;;;;;29.15;4.68;;;;;;;3.22;76.79;100022.34;4977006;28;20066;-33
2021/01/19 01:26:43;;;;;;;16.27;4.63;;;;;;;3.22;77.14;100014.66;4975958;28;20043;-33
2021/01/19 01:29:09;;;;;;;12.38;3.97;;;;;;;3.23;77.25;100021.53;4976975;28;20042;-33
2021/01/19 01:31:35;;;;;;;17.90;4.75;;;;;;;3.22;77.34;100013.81;4975711;28;20038;-33
2021/01/19 01:34:01;;;;;;;11.52;5.15;;;;;;;3.20;76.35;100009.50;4976475;28;20031;-33
2021/01/19 01:36:26;;;;;;;18.50;5.80;;;;;;;3.19;77.37;100002.59;4977011;28;20039;-33
2021/01/19 01:38:52;;;;;;;15.48;4.65;;;;;;;3.21;76.75;100010.34;4976540;28;20042;-33
2021/01/19 01:41:21;;;;;;;12.88;4.70;;;;;;;3.20;77.03;100003.47;4975525;28;20129;-33
2021/01/19 01:43:49;;;;;;;8.93;3.78;;;;;;;3.19;77.19;100002.59;4959249;28;20105;-33
2021/01/19 01:46:15;;;;;;;16.45;4.85;;;;;;;3.21;76.81;99987.28;4976503;28;20046;-33
2021/01/19 01:48:47;;;;;;;15.35;4.93;;;;;;;3.23;76.97;99984.81;4976648;28;20069;-34
2021/01/19 01:51:13;;;;;;;17.77;4.30;;;;;;;3.23;76.98;99992.50;4976471;28;20035;-33
2021/01/19 01:53:42;;;;;;;10.73;5.03;;;;;;;3.22;76.55;99986.50;4976497;28;20034;-33
2021/01/19 01:56:09;;;;;;;12.88;4.90;;;;;;;3.22;76.55;99985.63;4975475;28;20050;-33
2021/01/19 01:58:35;;;;;;;17.45;5.53;;;;;;;3.18;77.40;99982.06;4976081;28;20395;-33
2021/01/19 02:01:04;;;;;;;17.77;5.78;;;;;;;3.18;76.87;99967.56;4975317;28;20491;-33
2021/01/19 02:03:30;;;;;;;15.70;4.88;;;;;;;3.19;76.77;99959.06;4976197;28;20082;-33
2021/01/19 02:05:56;;;;;;;14.30;5.68;;;;;;;3.17;77.01;99953.00;4958708;28;20469;-33
2021/01/19 02:08:21;;;;;;;15.75;5.63;;;;;;;3.18;76.67;99941.09;4976014;28;20574;-34
2021/01/19 02:11:24;;;;;;;15.98;5.15;;;;;;;3.16;77.63;99935.00;4976275;28;20047;-33
2021/01/19 02:14:07;;;;;;;19.58;4.97;;;;;;;3.18;77.30;99923.16;4972117;28;20498;-33
2021/01/19 02:16:51;;;;;;;13.30;4.72;;;;;;;3.17;77.64;99914.56;4976090;28;20458;-33
2021/01/19 02:19:38;;;;;;;14.15;4.40;;;;;;;3.16;77.50;99911.97;4976210;28;20034;-34
2021/01/19 02:22:09;;;;;;;10.13;4.28;;;;;;;3.16;77.46;99889.78;4975594;28;20117;-33
2021/01/19 02:24:42;;;;;;;15.20;5.40;;;;;;;3.19;77.22;99889.06;4958987;28;20406;-33
2021/01/19 02:27:10;;;;;;;14.65;5.15;;;;;;;3.18;77.14;99880.47;4975847;28;20043;-34
2021/01/19 02:29:54;;;;;;;19.77;5.28;;;;;;;3.17;77.40;99875.28;4975853;28;20042;-34
2021/01/19 02:32:31;;;;;;;15.20;5.60;;;;;;;3.18;77.24;99877.06;4975985;28;20046;-33
2021/01/19 02:35:14;;;;;;;11.38;4.28;;;;;;;3.18;77.47;99859.97;4976012;28;20101;-34
2021/01/19 02:38:18;;;;;;;14.23;4.25;;;;;;;3.19;77.47;99866.84;4974747;28;20042;-33
2021/01/19 02:40:47;;;;;;;12.35;4.38;;;;;;;3.18;76.84;99852.31;4975192;28;20506;-33
2021/01/19 02:43:25;;;;;;;10.10;4.03;;;;;;;3.16;77.48;99850.50;4975209;28;20042;-33
2021/01/19 02:45:55;;;;;;;14.90;4.72;;;;;;;3.19;77.20;99841.25;4975028;28;20462;-33
2021/01/19 02:48:25;;;;;;;14.13;4.50;;;;;;;3.19;77.37;99837.81;4975533;28;20035;-33
2021/01/19 02:50:51;;;;;;;16.10;4.68;;;;;;;3.20;76.78;99835.31;4975146;28;20166;-33
2021/01/19 02:53:18;;;;;;;10.10;3.63;;;;;;;3.25;76.39;99829.53;4975548;28;20058;-33
2021/01/19 02:55:45;;;;;;;19.30;4.85;;;;;;;3.24;76.76;99820.09;4957892;28;20049;-33
2021/01/19 02:58:32;;;;;;;11.52;5.63;;;;;;;3.22;76.78;99822.56;4975367;28;20062;-33
2021/01/19 03:01:09;;;;;;;13.50;4.15;;;;;;;3.18;77.01;99813.03;4975283;28;20097;-33
2021/01/19 03:03:39;;;;;;;12.25;4.40;;;;;;;3.20;76.71;99812.25;4975655;28;20038;-33
2021/01/19 03:06:17;;;;;;;14.23;4.85;;;;;;;3.19;77.11;99804.53;4975291;28;20046;-31
2021/01/19 03:08:44;;;;;;;14.15;5.50;;;;;;;3.19;77.03;99797.69;4975051;28;20031;-31
2021/01/19 03:11:19;;;;;;;11.95;5.05;;;;;;;3.20;76.88;99778.06;4975877;28;20116;-31
2021/01/19 03:13:49;;;;;;;10.77;4.75;;;;;;;3.19;76.91;99779.78;4958197;28;20031;-31
2021/01/19 03:16:17;;;;;;;10.13;3.55;;;;;;;3.20;76.94;99780.63;4958361;28;20043;-31
2021/01/19 03:18:45;;;;;;;14.98;4.60;;;;;;;3.20;76.54;99775.50;4974858;28;20042;-31
2021/01/19 03:21:12;;;;;;;9.35;3.92;;;;;;;3.22;76.80;99773.03;4974866;28;20035;-31
2021/01/19 03:23:38;;;;;;;15.75;4.20;;;;;;;3.23;76.44;99767.97;4958308;28;20428;-31
2021/01/19 03:26:07;;;;;;;18.05;4.60;;;;;;;3.19;77.14;99755.88;4957476;28;20498;-30
2021/01/19 03:28:34;;;;;;;14.98;3.80;;;;;;;3.18;77.08;99744.72;4975072;28;20031;-31
2021/01/19 03:31:01;;;;;;;15.32;3.53;;;;;;;3.21;77.10;99746.53;4974992;28;20045;-31
2021/01/19 03:33:27;;;;;;;11.93;4.07;;;;;;;3.20;77.15;99731.97;4974864;28;20039;-31
2021/01/19 03:35:52;;;;;;;9.25;3.50;;;;;;;3.24;76.65;99728.72;4974581;28;20039;-31
2021/01/19 03:38:18;;;;;;;11.68;3.60;;;;;;;3.22;77.06;99722.66;4973342;28;20058;-31
2021/01/19 03:40:44;;;;;;;14.95;3.78;;;;;;;3.24;77.03;99715.94;4974793;28;20050;-31
2021/01/19 03:43:09;;;;;;;13.20;3.58;;;;;;;3.23;76.74;99711.63;4973413;28;20038;-31
2021/01/19 03:45:35;;;;;;;11.70;3.70;;;;;;;3.23;77.18;99710.75;4974465;28;20126;-31
2021/01/19 03:48:01;;;;;;;13.38;4.07;;;;;;;3.25;77.04;99706.56;4974519;28;20114;-31
2021/01/19 03:50:28;;;;;;;16.13;4.38;;;;;;;3.25;76.81;99704.88;4974266;28;20121;-31
2021/01/19 03:52:54;;;;;;;18.80;4.10;;;;;;;3.27;77.02;99687.88;4973374;28;20537;-31
2021/01/19 03:55:19;;;;;;;13.23;3.88;;;;;;;3.28;77.22;99692.19;4974585;28;20038;-31
2021/01/19 03:57:45;;;;;;;12.73;3.72;;;;;;;3.26;77.24;99695.50;4974711;28;20074;-31
2021/01/19 04:00:15;;;;;;;14.98;4.10;;;;;;;3.28;76.74;99683.63;4974420;28;20487;-31
2021/01/19 04:02:41;;;;;;;14.75;3.55;;;;;;;3.28;77.12;99683.63;4974651;28;20047;-31
2021/01/19 04:05:08;;;;;;;9.95;3.47;;;;;;;3.29;77.20;99686.25;4973950;28;20561;-31
2021/01/19 04:07:38;;;;;;;11.95;4.00;;;;;;;3.31;77.52;99665.81;4974248;28;20035;-31
2021/01/19 04:10:04;;;;;;;11.20;3.80;;;;;;;3.31;77.02;99656.44;4974419;28;20046;-31
2021/01/19 04:12:32;;;;;;;15.20;4.55;;;;;;;3.31;77.38;99647.88;4974473;28;20034;-31
2021/01/19 04:14:58;;;;;;;10.88;4.10;;;;;;;3.32;77.55;99647.06;4974119;28;20121;-31
2021/01/19 04:17:23;;;;;;;10.95;3.10;;;;;;;3.31;77.97;99643.66;4974225;28;20079;-31
2021/01/19 04:19:49;;;;;;;6.72;3.05;;;;;;;3.30;77.54;99631.66;4973064;28;20035;-31
2021/01/19 04:22:14;;;;;;;8.68;3.20;;;;;;;3.31;78.08;99637.63;4974401;28;20039;-31
2021/01/19 04:24:42;;;;;;;9.57;3.63;;;;;;;3.32;78.23;99635.16;4973363;28;20093;-31
2021/01/19 04:27:07;;;;;;;8.60;3.00;;;;;;;3.33;77.92;99628.31;4974167;28;20039;-31
2021/01/19 04:29:33;;;;;;;9.82;2.95;;;;;;;3.34;77.66;99630.97;4974171;28;20085;-31
2021/01/19 04:31:58;;;;;;;5.90;2.72;;;;;;;3.31;78.59;99618.03;4974414;28;20039;-31
2021/01/19 04:34:23;;;;;;;6.85;3.03;;;;;;;3.35;77.80;99614.75;4974046;28;20035;-31
2021/01/19 04:36:52;;;;;;;6.63;2.80;;;;;;;3.37;77.36;99617.38;4974451;28;20089;-31
2021/01/19 04:39:17;;;;;;;9.63;3.47;;;;;;;3.34;78.51;99615.59;4973165;28;20034;-31
2021/01/19 04:41:46;;;;;;;9.05;2.63;;;;;;;3.35;77.80;99604.50;4957039;28;20043;-31
2021/01/19 04:44:15;;;;;;;8.73;3.20;;;;;;;3.38;77.97;99597.75;4973160;28;20034;-31
2021/01/19 04:46:44;;;;;;;9.65;2.78;;;;;;;3.37;78.77;99585.75;4974001;28;20035;-31
2021/01/19 04:49:10;;;;;;;8.13;2.85;;;;;;;3.40;78.11;99578.19;4974099;28;20031;-31
2021/01/19 04:51:38;;;;;;;11.48;3.13;;;;;;;3.36;78.60;99569.53;4974351;28;20070;-31
2021/01/19 04:54:06;;;;;;;9.52;2.63;;;;;;;3.37;78.34;99572.94;4974303;28;20034;-31
2021/01/19 04:56:39;;;;;;;8.52;2.67;;;;;;;3.41;77.83;99569.69;4974255;28;20487;-31
2021/01/19 04:59:14;;;;;;;9.25;2.83;;;;;;;3.42;78.23;99553.50;4973946;28;20043;-31
2021/01/19 05:01:55;;;;;;;6.03;2.35;;;;;;;3.40;79.20;99552.56;4975357;28;20078;-31
2021/01/19 05:04:26;;;;;;;7.50;2.70;;;;;;;3.39;79.32;99554.28;4960553;28;20042;-31
2021/01/19 05:07:01;;;;;;;10.80;2.55;;;;;;;3.40;78.56;99553.47;4977591;28;20063;-31
2021/01/19 05:09:46;;;;;;;6.53;2.42;;;;;;;3.40;79.27;99526.94;4976983;28;20042;-31
2021/01/19 05:12:19;;;;;;;4.93;2.08;;;;;;;3.39;79.11;99544.03;4977376;28;20042;-32
2021/01/19 05:14:46;;;;;;;6.03;2.22;;;;;;;3.38;78.76;99539.72;4977297;28;20517;-31
2021/01/19 05:17:12;;;;;;;7.38;2.40;;;;;;;3.41;78.30;99526.13;4977701;28;20090;-31
2021/01/19 05:19:42;;;;;;;8.80;2.00;;;;;;;3.44;78.08;99524.56;4976794;28;20446;-31
2021/01/19 05:22:15;;;;;;;4.57;2.03;;;;;;;3.43;78.89;99525.38;4977221;28;20038;-31
2021/01/19 05:24:40;;;;;;;8.20;2.00;;;;;;;3.42;78.62;99505.72;4977106;28;20035;-31
2021/01/19 05:27:09;;;;;;;6.90;2.25;;;;;;;3.46;78.18;99499.00;4977192;28;20042;-31
2021/01/19 05:29:34;;;;;;;7.18;1.92;;;;;;;3.45;78.48;99507.50;4977142;28;20114;-31
2021/01/19 05:32:02;;;;;;;7.55;2.78;;;;;;;3.44;78.60;99491.25;4976983;28;20122;-31
2021/01/19 05:34:28;;;;;;;6.93;1.98;;;;;;;3.44;78.79;99483.56;4976582;28;20042;-31
2021/01/19 05:36:54;;;;;;;7.03;2.20;;;;;;;3.44;78.74;99467.31;4976816;28;20089;-31
2021/01/19 05:39:21;;;;;;;9.85;2.20;;;;;;;3.44;78.54;99446.84;4976706;28;20498;-31
2021/01/19 05:41:48;;;;;;;4.13;1.48;;;;;;;3.45;78.69;99452.00;4975616;28;20499;-31
2021/01/19 05:44:27;;;;;;;3.72;1.55;;;;;;;3.47;78.29;99452.94;4976618;28;20035;-31
2021/01/19 05:46:59;;;;;;;3.33;1.55;;;;;;;3.47;78.94;99452.06;4959512;28;20458;-31
2021/01/19 05:49:26;;;;;;;4.22;1.88;;;;;;;3.48;78.32;99443.56;4976583;28;20461;-31
2021/01/19 05:52:04;;;;;;;4.03;1.45;;;;;;;3.49;79.08;99443.59;4976117;28;20046;-31
2021/01/19 05:54:31;;;;;;;4.22;1.75;;;;;;;3.50;77.96;99434.25;4976099;28;20561;-31
2021/01/19 05:56:59;;;;;;;7.90;2.20;;;;;;;3.50;78.21;99439.38;4976284;28;20044;-31
2021/01/19 05:59:27;;;;;;;4.10;1.92;;;;;;;3.51;78.22;99412.91;4975307;28;20121;-31
2021/01/19 06:02:00;;;;;;;3.95;1.50;;;;;;;3.52;79.12;99436.84;4976250;28;20043;-31
2021/01/19 06:04:49;;;;;;;5.57;1.42;;;;;;;3.50;79.50;99426.56;4959194;28;20057;-31
2021/01/19 06:07:23;;;;;;;4.43;1.70;;;;;;;3.49;79.57;99414.56;4976068;28;20035;-31
2021/01/19 06:09:50;;;;;;;6.40;1.58;;;;;;;3.48;78.70;99425.63;4976000;28;20034;-31
2021/01/19 06:12:16;;;;;;;4.78;2.00;;;;;;;3.49;78.44;99419.69;4975808;28;20062;-31
2021/01/19 06:14:51;;;;;;;7.15;1.90;;;;;;;3.50;79.18;99401.78;4976263;28;20034;-31
2021/01/19 06:17:22;;;;;;;7.40;2.22;;;;;;;3.51;78.72;99402.66;4976358;28;20043;-31
2021/01/19 06:19:59;;;;;;;4.82;1.98;;;;;;;3.52;79.16;99401.84;4975989;28;20560;-31
2021/01/19 06:22:27;;;;;;;5.55;1.90;;;;;;;3.53;78.04;99400.16;4974451;28;20039;-31
2021/01/19 06:24:55;;;;;;;7.22;2.00;;;;;;;3.53;78.79;99393.31;4975550;28;20109;-31
2021/01/19 06:27:23;;;;;;;11.20;2.85;;;;;;;3.50;78.58;99386.41;4974463;28;20042;-31
2021/01/19 06:29:50;;;;;;;9.88;2.28;;;;;;;3.53;78.47;99383.09;4975698;28;20034;-31
2021/01/19 06:32:17;;;;;;;6.10;2.33;;;;;;;3.55;79.09;99383.16;4975704;28;20031;-31
2021/01/19 06:34:43;;;;;;;5.25;2.05;;;;;;;3.54;78.61;99374.56;4975824;28;20038;-31
2021/01/19 06:37:10;;;;;;;4.82;2.15;;;;;;;3.53;78.37;99380.53;4975623;28;20039;-31
2021/01/19 06:39:40;;;;;;;5.40;2.20;;;;;;;3.54;79.03;99382.25;4975733;28;20479;-31
2021/01/19 06:42:14;;;;;;;10.02;2.22;;;;;;;3.53;79.38;99369.41;4974297;28;20047;-31
2021/01/19 06:44:46;;;;;;;10.25;2.80;;;;;;;3.54;79.04;99399.34;4974521;28;20030;-31
2021/01/19 06:47:13;;;;;;;10.20;3.45;;;;;;;3.51;79.17;99374.47;4975484;28;20038;-31
2021/01/19 06:49:42;;;;;;;9.07;2.00;;;;;;;3.52;79.11;99378.78;4975141;28;20110;-31
2021/01/19 06:52:16;;;;;;;6.75;2.47;;;;;;;3.54;79.27;99372.00;4975481;28;20459;-31
2021/01/19 06:55:04;;;;;;;7.88;2.30;;;;;;;3.53;80.25;99374.53;4957865;28;20469;-31
2021/01/19 06:57:37;;;;;;;5.85;2.13;;;;;;;3.54;78.79;99361.75;4975441;28;20062;-31
2021/01/19 07:00:08;;;;;;;8.63;2.35;;;;;;;3.53;80.07;99360.03;4975280;28;20034;-31
2021/01/19 07:02:37;;;;;;;16.20;2.75;;;;;;;3.56;78.97;99356.72;4975473;28;20138;-30
2021/01/19 07:05:08;;;;;;;6.85;2.10;;;;;;;3.56;79.15;99352.44;4974808;28;20062;-31
2021/01/19 07:07:48;;;;;;;8.95;2.45;;;;;;;3.55;79.63;99335.31;4975735;28;20043;-31
2021/01/19 07:10:25;;;;;;;10.35;2.60;;;;;;;3.56;78.73;99337.06;4974721;28;20042;-31
2021/01/19 07:13:00;;;;;;;8.70;2.95;;;;;;;3.54;79.35;99331.03;4975173;28;20030;-31
2021/01/19 07:15:57;;;;;;;10.52;2.05;;;;;;;3.52;80.39;99327.53;4973821;28;20074;-31
2021/01/19 07:18:40;;;;;;;5.95;2.50;;;;;;;3.54;79.79;99318.22;4974943;28;20049;-31
2021/01/19 07:21:07;;;;;;;8.43;2.38;;;;;;;3.55;79.50;99311.41;4975072;28;20043;-31
2021/01/19 07:23:33;;;;;;;11.50;2.13;;;;;;;3.54;79.49;99319.91;4974264;28;20030;-31
2021/01/19 07:25:58;;;;;;;10.40;2.10;;;;;;;3.54;79.92;99318.22;4974310;28;20092;-31
2021/01/19 07:28:23;;;;;;;10.82;2.40;;;;;;;3.55;79.59;99319.09;4974895;28;20037;-31
2021/01/19 07:30:49;;;;;;;7.70;2.78;;;;;;;3.56;79.09;99305.47;4974801;28;20034;-31
2021/01/19 07:33:15;;;;;;;8.63;2.92;;;;;;;3.56;79.72;99300.34;4975026;28;20125;-31
2021/01/19 07:35:41;;;;;;;10.75;3.85;;;;;;;3.56;79.87;99295.22;4957230;28;20046;-31
2021/01/19 07:38:07;;;;;;;9.57;2.03;;;;;;;3.56;78.92;99285.81;4974524;28;20039;-31
2021/01/19 07:40:43;;;;;;;11.80;3.50;;;;;;;3.56;80.11;99290.94;4974677;28;20038;-31
2021/01/19 07:43:14;;;;;;;9.45;2.75;;;;;;;3.55;80.69;99283.22;4974588;28;20031;-31
2021/01/19 07:45:52;;;;;;;8.25;2.42;;;;;;;3.58;80.37;99289.31;4941843;28;20446;-31
2021/01/19 07:48:28;;;;;;;7.13;3.00;;;;;;;3.56;80.53;99290.09;4974255;28;20387;-31
2021/01/19 07:50:54;;;;;;;11.02;2.20;;;;;;;3.58;79.65;99271.38;4974508;28;20050;-31
2021/01/19 07:53:19;;;;;;;7.65;2.10;;;;;;;3.59;79.39;99272.22;4973446;28;20042;-31
2021/01/19 07:55:46;;;;;;;5.53;1.98;;;;;;;3.57;80.00;99276.47;4974759;28;20050;-31
2021/01/19 07:58:20;;;;;;;7.40;1.90;;;;;;;3.60;80.09;99268.84;4974189;28;20392;-31
2021/01/19 08:00:47;;;;;;;4.20;1.67;;;;;;;3.57;80.12;99264.50;4974366;28;20074;-31
2021/01/19 08:03:13;;;;;;;6.50;1.95;;;;;;;3.59;79.71;99279.91;4974287;28;20042;-31
2021/01/19 08:05:39;;;;;;;7.22;2.10;;;;;;;3.61;79.98;99270.59;4956695;28;20120;-32
2021/01/19 08:08:15;;;;;;;5.15;1.98;;;;;;;3.62;80.45;99252.72;4974774;28;20038;-31
2021/01/19 08:10:52;;;;;;;5.18;1.70;;;;;;;3.64;79.48;99263.00;4974540;28;20042;-31
2021/01/19 08:13:21;;;;;;;2.97;1.40;;;;;;;3.63;79.92;99257.03;4974007;28;20034;-31
2021/01/19 08:16:01;;;;;;;5.13;1.73;;;;;;;3.63;80.39;99236.53;4974769;28;20046;-31
2021/01/19 08:18:38;;;;;;;4.30;2.00;;;;;;;3.65;80.41;99264.75;4974699;28;20038;-31
2021/01/19 08:21:05;;;;;;;5.25;1.27;;;;;;;3.66;79.67;99238.28;4974641;28;20443;-31
2021/01/19 08:23:33;;;;;;;6.45;1.80;;;;;;;3.70;79.79;99257.19;4973490;28;20034;-31
2021/01/19 08:26:04;;;;;;;5.18;1.52;;;;;;;3.68;80.15;99233.19;4974675;28;20089;-31
2021/01/19 08:28:30;;;;;;;3.67;1.60;;;;;;;3.69;79.65;99240.06;4974159;28;20084;-31
2021/01/19 08:30:55;;;;;;;5.15;1.85;;;;;;;3.67;80.04;99227.22;4973012;28;20043;-31
2021/01/19 08:33:24;;;;;;;6.65;1.75;;;;;;;3.69;80.23;99224.69;4974255;28;20035;-31
2021/01/19 08:35:50;;;;;;;3.72;1.40;;;;;;;3.69;80.41;99238.38;4975781;28;20050;-31
2021/01/19 08:38:21;;;;;;;4.57;1.83;;;;;;;3.66;80.64;99231.47;4977578;28;20143;-31
2021/01/19 08:40:50;;;;;;;6.60;1.73;;;;;;;3.70;80.41;99221.31;4977622;28;20129;-30
2021/01/19 08:43:16;;;;;;;6.95;1.58;;;;;;;3.70;80.11;99234.13;4977762;28;20041;-31
2021/01/19 08:45:42;;;;;;;5.82;1.55;;;;;;;3.70;80.29;99231.56;4960538;28;20042;-31
2021/01/19 08:48:11;;;;;;;4.18;1.38;;;;;;;3.69;80.06;99223.00;4977612;28;20031;-31
2021/01/19 08:50:41;;;;;;;2.30;1.23;;;;;;;3.71;79.95;99223.03;4977649;28;20043;-31
2021/01/19 08:53:14;;;;;;;2.58;1.10;;;;;;;3.73;79.95;99226.53;4978245;28;20093;-31
2021/01/19 08:55:41;;;;;;;3.60;1.10;;;;;;;3.72;79.59;99223.13;4977631;28;20133;-31
2021/01/19 08:58:18;;;;;;;5.07;1.20;;;;;;;3.73;81.60;99236.78;4960275;28;20034;-31
2021/01/19 09:00:43;;;;;;;5.18;1.80;;;;;;;3.72;80.05;99246.19;4977627;28;20451;-31
2021/01/19 09:03:10;;;;;;;3.25;1.50;;;;;;;3.72;79.85;99223.13;4960103;28;20133;-31
2021/01/19 09:05:36;;;;;;;2.22;1.30;;;;;;;3.74;79.59;99224.00;4959944;28;20383;-31
2021/01/19 09:08:14;;;;;;;5.82;1.40;;;;;;;3.74;80.73;99228.28;4977452;28;20527;-31
2021/01/19 09:10:39;;;;;;;2.17;1.05;;;;;;;3.75;80.36;99255.66;4977424;28;20030;-31
2021/01/19 09:13:05;;;;;;;2.75;1.17;;;;;;;3.73;80.64;99250.50;4960111;28;20066;-31
2021/01/19 09:15:41;;;;;;;5.38;1.33;;;;;;;3.77;81.18;99241.19;4960035;28;20038;-31
2021/01/19 09:18:12;;;;;;;1.52;0.90;;;;;;;3.76;80.30;99232.63;4960171;28;20142;-30
2021/01/19 09:20:38;;;;;;;2.50;1.10;;;;;;;3.77;80.45;99225.81;4977146;28;20211;-31
2021/01/19 09:23:08;;;;;;;2.80;1.25;;;;;;;3.76;80.82;99252.25;4976867;28;20037;-33
2021/01/19 09:25:34;;;;;;;2.25;1.10;;;;;;;3.78;80.80;99227.56;4977428;28;20070;-33
2021/01/19 09:28:04;;;;;;;3.53;1.10;;;;;;;3.79;80.63;99209.66;4976911;28;20038;-33
2021/01/19 09:30:35;;;;;;;3.63;1.20;;;;;;;3.81;80.18;99219.97;4976610;28;20039;-33
2021/01/19 09:33:14;;;;;;;2.20;1.00;;;;;;;3.81;80.39;99237.91;4976943;28;20046;-33
2021/01/19 09:35:41;;;;;;;3.00;1.10;;;;;;;3.81;80.64;99245.59;4976677;28;20038;-33
2021/01/19 09:38:13;;;;;;;1.95;1.10;;;;;;;3.81;81.00;99222.53;4977119;28;20534;-33
2021/01/19 09:40:39;;;;;;;2.40;1.30;;;;;;;3.81;80.22;99209.72;4976836;28;20062;-33
2021/01/19 09:43:13;;;;;;;3.63;1.45;;;;;;;3.82;80.80;99216.53;4976764;28;20074;-33
2021/01/19 09:45:39;;;;;;;1.58;0.98;;;;;;;3.80;79.77;99211.38;4976274;28;20038;-33
2021/01/19 09:48:07;;;;;;;3.08;1.45;;;;;;;3.84;80.16;99226.88;4975373;28;20486;-33
2021/01/19 09:50:32;;;;;;;1.60;1.13;;;;;;;3.83;79.97;99225.97;4976675;28;20034;-34
2021/01/19 09:52:58;;;;;;;2.25;1.02;;;;;;;3.84;80.86;99229.44;4976836;28;20046;-33
2021/01/19 09:55:29;;;;;;;2.75;0.80;;;;;;;3.83;80.79;99223.41;4976593;28;20027;-34
2021/01/19 09:58:00;;;;;;;3.88;1.20;;;;;;;3.85;81.03;99226.91;4959751;28;20042;-33
2021/01/19 10:00:34;;;;;;;3.65;1.13;;;;;;;3.87;80.75;99240.63;4959176;28;20069;-33
2021/01/19 10:03:12;;;;;;;2.70;1.30;;;;;;;3.88;80.90;99232.13;4976646;28;20121;-33
2021/01/19 10:05:43;;;;;;;2.70;1.13;;;;;;;3.87;80.76;99250.03;4976511;28;20121;-33
2021/01/19 10:08:09;;;;;;;3.72;1.40;;;;;;;3.87;80.45;99250.88;4976804;28;20505;-33
2021/01/19 10:10:40;;;;;;;2.33;1.42;;;;;;;3.85;80.67;99249.13;4976229;28;20117;-33
2021/01/19 10:13:06;;;;;;;2.28;1.13;;;;;;;3.86;80.03;99251.72;4976273;28;20396;-33
2021/01/19 10:15:35;;;;;;;1.52;0.90;;;;;;;3.89;80.62;99227.88;4958910;28;20148;-33
2021/01/19 10:18:00;;;;;;;3.90;1.02;;;;;;;3.90;80.46;99232.16;4959096;28;20030;-33
2021/01/19 10:20:34;;;;;;;1.90;0.70;;;;;;;3.91;81.01;99229.66;4976362;28;20623;-33
2021/01/19 10:23:00;;;;;;;1.08;0.90;;;;;;;3.90;80.62;99230.47;4976061;28;20046;-34
2021/01/19 10:25:34;;;;;;;1.70;1.00;;;;;;;3.90;80.86;99240.72;4958768;28;20054;-33
2021/01/19 10:28:01;;;;;;;2.00;1.20;;;;;;;3.93;80.66;99232.25;4975990;28;20082;-33
2021/01/19 10:30:42;;;;;;;2.00;0.80;;;;;;;3.93;80.58;99260.47;4975901;28;20130;-34
2021/01/19 10:33:08;;;;;;;1.77;1.10;;;;;;;3.93;80.49;99250.19;4976212;28;20515;-33
2021/01/19 10:35:36;;;;;;;8.10;1.13;;;;;;;3.95;80.24;99234.06;4975568;28;20039;-33
2021/01/19 10:38:06;;;;;;;1.63;1.10;;;;;;;3.94;81.08;99241.69;4975374;28;20033;-33
2021/01/19 10:40:36;;;;;;;1.05;1.00;;;;;;;3.96;81.24;99256.31;4975295;28;20085;-34
2021/01/19 10:43:12;;;;;;;2.45;0.90;;;;;;;3.97;81.20;99236.66;4975762;28;20058;-33
2021/01/19 10:45:42;;;;;;;1.75;0.82;;;;;;;3.98;80.96;99246.09;4975929;28;20038;-33
2021/01/19 10:48:19;;;;;;;1.08;0.90;;;;;;;3.96;80.74;99240.94;4975175;28;20043;-34
2021/01/19 10:50:45;;;;;;;1.55;0.90;;;;;;;3.97;80.61;99237.50;4975548;28;20031;-34
2021/01/19 10:53:10;;;;;;;2.63;1.02;;;;;;;4.00;80.53;99248.69;4958016;28;20454;-33
2021/01/19 10:55:35;;;;;;;1.85;1.23;;;;;;;4.01;80.70;99237.59;4975159;28;20112;-33
2021/01/19 10:58:03;;;;;;;1.00;0.90;;;;;;;3.99;80.49;99237.56;4975007;28;20031;-34
2021/01/19 11:00:29;;;;;;;2.13;1.20;;;;;;;4.00;80.57;99234.19;4975413;28;20046;-33
2021/01/19 11:02:55;;;;;;;1.88;1.40;;;;;;;4.02;80.71;99229.09;4974944;28;20116;-33
2021/01/19 11:05:22;;;;;;;3.75;1.10;;;;;;;4.03;80.89;99218.91;4974695;28;20454;-33
2021/01/19 11:07:50;;;;;;;2.05;0.85;;;;;;;4.05;80.66;99235.16;4975008;28;20066;-33
2021/01/19 11:10:20;;;;;;;1.60;0.85;;;;;;;4.04;81.56;99256.53;4958207;28;20410;-33
2021/01/19 11:12:46;;;;;;;1.95;0.88;;;;;;;4.08;80.28;99237.84;4958017;28;20057;-34
2021/01/19 11:15:13;;;;;;;1.55;0.98;;;;;;;4.08;80.79;99226.72;4958074;28;20038;-34
2021/01/19 11:17:39;;;;;;;0.88;0.88;;;;;;;4.10;80.22;99215.66;4975086;28;20039;-33
2021/01/19 11:20:07;;;;;;;0.70;0.70;;;;;;;4.11;80.63;99216.56;4975029;28;20042;-33
2021/01/19 11:22:33;;;;;;;1.77;0.90;;;;;;;4.14;80.54;99237.13;4975002;28;20034;-33
2021/01/19 11:24:59;;;;;;;2.40;1.00;;;;;;;4.14;81.13;99249.97;4957596;28;20038;-33
2021/01/19 11:27:27;;;;;;;1.10;1.00;;;;;;;4.16;80.93;99235.50;4975035;28;20035;-33
2021/01/19 11:29:56;;;;;;;1.58;1.00;;;;;;;4.15;80.32;99246.56;4974962;28;20046;-33
2021/01/19 11:32:22;;;;;;;1.35;0.80;;;;;;;4.16;80.55;99253.44;4974478;28;20043;-34
2021/01/19 11:34:50;;;;;;;5.25;1.33;;;;;;;4.16;80.96;99235.50;4974576;28;20093;-33
2021/01/19 11:37:16;;;;;;;1.70;1.00;;;;;;;4.18;80.73;99227.84;4957550;28;20122;-33
2021/01/19 11:39:42;;;;;;;1.73;1.10;;;;;;;4.17;80.55;99247.50;4974626;28;20129;-34
2021/01/19 11:42:13;;;;;;;1.35;1.02;;;;;;;4.18;81.42;99246.66;4957904;28;20070;-33
2021/01/19 11:44:38;;;;;;;2.08;0.90;;;;;;;4.21;81.15;99220.22;4974689;28;20494;-33
2021/01/19 11:47:06;;;;;;;1.08;0.95;;;;;;;4.24;81.56;99230.56;4974588;28;20041;-33